sensor_id;sensor_type;location;lat;lon;timestamp;temperature;humidity
41557;DHT22;27720;51.992;5.890;2022-11-22T16:02:20;7.20;99.90
41557;DHT22;27720;51.992;5.890;2022-11-22T16:04:52;7.50;99.90
41557;DHT22;27720;51.992;5.890;2022-11-22T16:07:43;7.90;99.90
41557;DHT22;27720;51.992;5.890;2022-11-22T16:10:19;8.20;99.90
41557;DHT22;27720;51.992;5.890;2022-11-22T16:12:46;8.40;99.90
41557;DHT22;27720;51.992;5.890;2022-11-22T16:15:34;8.60;99.90
41557;DHT22;27720;51.992;5.890;2022-11-22T16:18:21;8.80;99.90
41557;DHT22;27720;51.992;5.890;2022-11-22T16:23:36;8.90;99.90
41557;DHT22;27720;51.992;5.890;2022-11-22T16:28:47;9.00;99.90
41557;DHT22;27720;51.992;5.890;2022-11-22T16:31:18;9.00;99.90
41557;DHT22;27720;51.992;5.890;2022-11-22T16:33:46;9.00;99.90
41557;DHT22;27720;51.992;5.890;2022-11-22T16:36:16;9.10;99.90
41557;DHT22;27720;51.992;5.890;2022-11-22T16:38:53;9.10;99.90
41557;DHT22;27720;51.992;5.890;2022-11-22T16:41:24;9.10;99.90
41557;DHT22;27720;51.992;5.890;2022-11-22T16:44:13;9.10;99.90
41557;DHT22;27720;51.992;5.890;2022-11-22T16:46:49;9.20;99.90
41557;DHT22;27720;51.992;5.890;2022-11-22T16:49:45;9.20;99.90
41557;DHT22;27720;51.992;5.890;2022-11-22T16:52:25;9.20;99.90
41557;DHT22;27720;51.992;5.890;2022-11-22T16:55:14;9.20;99.90
41557;DHT22;27720;51.992;5.890;2022-11-22T16:57:44;9.10;99.90
41557;DHT22;27720;51.992;5.890;2022-11-22T17:00:51;9.10;99.90
41557;DHT22;27720;51.992;5.890;2022-11-22T17:03:25;9.20;99.90
41557;DHT22;27720;51.992;5.890;2022-11-22T17:06:03;9.10;99.90
41557;DHT22;27720;51.992;5.890;2022-11-22T17:08:36;9.10;99.90
41557;DHT22;27720;51.992;5.890;2022-11-22T17:11:39;9.10;99.90
41557;DHT22;27720;51.992;5.890;2022-11-22T17:14:19;9.20;99.90
41557;DHT22;27720;51.992;5.890;2022-11-22T17:17:30;9.10;99.90
41557;DHT22;27720;51.992;5.890;2022-11-22T17:20:04;9.20;99.90
41557;DHT22;27720;51.992;5.890;2022-11-22T17:22:35;9.20;99.90
41557;DHT22;27720;51.992;5.890;2022-11-22T17:25:08;9.10;99.90
41557;DHT22;27720;51.992;5.890;2022-11-22T17:27:40;9.20;99.90
41557;DHT22;27720;51.992;5.890;2022-11-22T17:30:21;9.20;99.90
41557;DHT22;27720;51.992;5.890;2022-11-22T17:41:02;9.30;99.90
41557;DHT22;27720;51.992;5.890;2022-11-22T17:43:51;9.30;99.90
41557;DHT22;27720;51.992;5.890;2022-11-22T17:46:57;9.30;99.90
41557;DHT22;27720;51.992;5.890;2022-11-22T17:52:30;9.30;99.90
41557;DHT22;27720;51.992;5.890;2022-11-22T17:55:03;9.20;99.90
41557;DHT22;27720;51.992;5.890;2022-11-22T17:57:35;9.20;99.90
41557;DHT22;27720;51.992;5.890;2022-11-22T18:00:04;9.20;99.90
41557;DHT22;27720;51.992;5.890;2022-11-22T18:02:33;9.20;99.90
41557;DHT22;27720;51.992;5.890;2022-11-22T18:05:26;9.20;99.90
41557;DHT22;27720;51.992;5.890;2022-11-22T18:07:52;9.20;99.90
41557;DHT22;27720;51.992;5.890;2022-11-22T18:10:29;9.20;99.90
41557;DHT22;27720;51.992;5.890;2022-11-22T18:13:00;9.30;99.90
41557;DHT22;27720;51.992;5.890;2022-11-22T18:15:40;9.30;99.90
41557;DHT22;27720;51.992;5.890;2022-11-22T18:21:10;9.40;99.90
41557;DHT22;27720;51.992;5.890;2022-11-22T18:23:45;9.40;99.90
41557;DHT22;27720;51.992;5.890;2022-11-22T18:26:12;9.30;99.90
41557;DHT22;27720;51.992;5.890;2022-11-22T18:28:38;9.30;99.90
41557;DHT22;27720;51.992;5.890;2022-11-22T18:31:40;9.40;99.90
41557;DHT22;27720;51.992;5.890;2022-11-22T18:38:09;9.40;99.90
41557;DHT22;27720;51.992;5.890;2022-11-22T18:41:32;9.40;99.90
41557;DHT22;27720;51.992;5.890;2022-11-22T18:44:43;9.40;99.90
41557;DHT22;27720;51.992;5.890;2022-11-22T18:47:13;9.30;99.90
41557;DHT22;27720;51.992;5.890;2022-11-22T18:50:20;9.40;99.90
41557;DHT22;27720;51.992;5.890;2022-11-22T18:52:49;9.40;99.90
41557;DHT22;27720;51.992;5.890;2022-11-22T18:55:22;9.40;99.90
41557;DHT22;27720;51.992;5.890;2022-11-22T18:58:27;9.40;99.90
41557;DHT22;27720;51.992;5.890;2022-11-22T19:01:18;9.40;99.90
41557;DHT22;27720;51.992;5.890;2022-11-22T19:03:57;9.40;99.90
41557;DHT22;27720;51.992;5.890;2022-11-22T19:06:36;9.40;99.90
41557;DHT22;27720;51.992;5.890;2022-11-22T19:09:35;9.40;99.90
41557;DHT22;27720;51.992;5.890;2022-11-22T19:12:01;9.40;99.90
41557;DHT22;27720;51.992;5.890;2022-11-22T19:14:30;9.40;99.90
41557;DHT22;27720;51.992;5.890;2022-11-22T19:16:58;9.40;99.90
41557;DHT22;27720;51.992;5.890;2022-11-22T19:19:29;9.40;99.90
41557;DHT22;27720;51.992;5.890;2022-11-22T19:46:47;9.40;99.90
41557;DHT22;27720;51.992;5.890;2022-11-22T19:49:13;9.30;99.90
41557;DHT22;27720;51.992;5.890;2022-11-22T19:51:42;9.30;99.90
41557;DHT22;27720;51.992;5.890;2022-11-22T19:54:08;9.30;99.90
41557;DHT22;27720;51.992;5.890;2022-11-22T19:56:35;9.30;99.90
41557;DHT22;27720;51.992;5.890;2022-11-22T19:59:18;9.30;99.90
41557;DHT22;27720;51.992;5.890;2022-11-22T20:02:26;9.30;99.90
41557;DHT22;27720;51.992;5.890;2022-11-22T20:04:53;9.40;99.90
41557;DHT22;27720;51.992;5.890;2022-11-22T20:07:19;9.30;99.90
41557;DHT22;27720;51.992;5.890;2022-11-22T20:09:48;9.30;99.90
41557;DHT22;27720;51.992;5.890;2022-11-22T20:12:17;9.40;99.90
41557;DHT22;27720;51.992;5.890;2022-11-22T20:14:43;9.30;99.90
41557;DHT22;27720;51.992;5.890;2022-11-22T20:17:09;9.40;99.90
41557;DHT22;27720;51.992;5.890;2022-11-22T20:19:35;9.40;99.90
41557;DHT22;27720;51.992;5.890;2022-11-22T20:22:00;9.40;99.90
41557;DHT22;27720;51.992;5.890;2022-11-22T20:24:32;9.40;99.90
41557;DHT22;27720;51.992;5.890;2022-11-22T20:26:58;9.40;99.90
41557;DHT22;27720;51.992;5.890;2022-11-22T20:29:27;9.50;99.90
41557;DHT22;27720;51.992;5.890;2022-11-22T20:31:56;9.50;99.90
41557;DHT22;27720;51.992;5.890;2022-11-22T20:34:23;9.50;99.90
41557;DHT22;27720;51.992;5.890;2022-11-22T20:36:49;9.50;99.90
41557;DHT22;27720;51.992;5.890;2022-11-22T20:39:15;9.50;99.90
41557;DHT22;27720;51.992;5.890;2022-11-22T20:41:44;9.50;99.90
41557;DHT22;27720;51.992;5.890;2022-11-22T20:44:11;9.60;99.90
41557;DHT22;27720;51.992;5.890;2022-11-22T20:46:40;9.60;99.90
41557;DHT22;27720;51.992;5.890;2022-11-22T20:49:10;9.60;99.90
41557;DHT22;27720;51.992;5.890;2022-11-22T20:51:43;9.50;99.90
41557;DHT22;27720;51.992;5.890;2022-11-22T20:54:12;9.50;99.90
41557;DHT22;27720;51.992;5.890;2022-11-22T20:56:38;9.60;99.90
41557;DHT22;27720;51.992;5.890;2022-11-22T20:59:04;9.60;99.90
41557;DHT22;27720;51.992;5.890;2022-11-22T21:01:30;9.60;99.90
41557;DHT22;27720;51.992;5.890;2022-11-22T21:03:58;9.60;99.90
41557;DHT22;27720;51.992;5.890;2022-11-22T21:06:27;9.60;99.90
41557;DHT22;27720;51.992;5.890;2022-11-22T21:08:53;9.70;99.90
41557;DHT22;27720;51.992;5.890;2022-11-22T21:11:35;9.60;99.90
41557;DHT22;27720;51.992;5.890;2022-11-22T21:14:40;9.70;99.90
41557;DHT22;27720;51.992;5.890;2022-11-22T21:17:06;9.70;99.90
41557;DHT22;27720;51.992;5.890;2022-11-22T21:19:32;9.60;99.90
41557;DHT22;27720;51.992;5.890;2022-11-22T21:22:00;9.60;99.90
41557;DHT22;27720;51.992;5.890;2022-11-22T21:24:27;9.60;99.90
41557;DHT22;27720;51.992;5.890;2022-11-22T21:26:53;9.60;99.90
41557;DHT22;27720;51.992;5.890;2022-11-22T21:29:19;9.60;99.90
41557;DHT22;27720;51.992;5.890;2022-11-22T21:31:48;9.70;99.90
41557;DHT22;27720;51.992;5.890;2022-11-22T21:34:15;9.60;99.90
41557;DHT22;27720;51.992;5.890;2022-11-22T21:36:43;9.70;99.90
41557;DHT22;27720;51.992;5.890;2022-11-22T21:39:12;9.70;99.90
41557;DHT22;27720;51.992;5.890;2022-11-22T21:41:38;9.70;99.90
41557;DHT22;27720;51.992;5.890;2022-11-22T21:44:04;9.70;99.90
41557;DHT22;27720;51.992;5.890;2022-11-22T21:46:30;9.70;99.90
41557;DHT22;27720;51.992;5.890;2022-11-22T21:48:56;9.70;99.90
41557;DHT22;27720;51.992;5.890;2022-11-22T21:51:22;9.70;99.90
41557;DHT22;27720;51.992;5.890;2022-11-22T21:53:50;9.70;99.90
41557;DHT22;27720;51.992;5.890;2022-11-22T21:56:19;9.70;99.90
41557;DHT22;27720;51.992;5.890;2022-11-22T21:58:45;9.70;99.90
41557;DHT22;27720;51.992;5.890;2022-11-22T22:01:11;9.70;99.90
41557;DHT22;27720;51.992;5.890;2022-11-22T22:03:37;9.70;99.90
41557;DHT22;27720;51.992;5.890;2022-11-22T22:06:09;9.70;99.90
41557;DHT22;27720;51.992;5.890;2022-11-22T22:08:42;9.70;99.90
41557;DHT22;27720;51.992;5.890;2022-11-22T22:11:08;9.70;99.90
41557;DHT22;27720;51.992;5.890;2022-11-22T22:13:36;9.70;99.90
41557;DHT22;27720;51.992;5.890;2022-11-22T22:16:06;9.70;99.90
41557;DHT22;27720;51.992;5.890;2022-11-22T22:18:35;9.70;99.90
41557;DHT22;27720;51.992;5.890;2022-11-22T22:21:06;9.70;99.90
41557;DHT22;27720;51.992;5.890;2022-11-22T22:23:34;9.70;99.90
41557;DHT22;27720;51.992;5.890;2022-11-22T22:26:13;9.70;99.90
41557;DHT22;27720;51.992;5.890;2022-11-22T22:28:40;9.70;99.90
41557;DHT22;27720;51.992;5.890;2022-11-22T22:31:19;9.80;99.90
41557;DHT22;27720;51.992;5.890;2022-11-22T22:33:56;9.80;99.90
41557;DHT22;27720;51.992;5.890;2022-11-22T22:36:26;9.80;99.90
41557;DHT22;27720;51.992;5.890;2022-11-22T22:38:53;9.80;99.90
41557;DHT22;27720;51.992;5.890;2022-11-22T22:41:19;9.80;99.90
41557;DHT22;27720;51.992;5.890;2022-11-22T22:43:46;9.70;99.90
41557;DHT22;27720;51.992;5.890;2022-11-22T22:46:15;9.70;99.90
41557;DHT22;27720;51.992;5.890;2022-11-22T22:48:42;9.80;99.90
41557;DHT22;27720;51.992;5.890;2022-11-22T22:53:36;9.90;99.90
41557;DHT22;27720;51.992;5.890;2022-11-22T22:56:03;9.90;99.90
41557;DHT22;27720;51.992;5.890;2022-11-22T22:58:29;9.80;99.90
41557;DHT22;27720;51.992;5.890;2022-11-22T23:01:05;9.80;99.90
41557;DHT22;27720;51.992;5.890;2022-11-22T23:03:35;9.90;99.90
41557;DHT22;27720;51.992;5.890;2022-11-22T23:06:05;9.90;99.90
41557;DHT22;27720;51.992;5.890;2022-11-22T23:08:31;9.90;99.90
41557;DHT22;27720;51.992;5.890;2022-11-22T23:11:08;9.90;99.90
41557;DHT22;27720;51.992;5.890;2022-11-22T23:13:36;9.90;99.90
41557;DHT22;27720;51.992;5.890;2022-11-22T23:16:08;9.90;99.90
41557;DHT22;27720;51.992;5.890;2022-11-22T23:18:44;9.90;99.90
41557;DHT22;27720;51.992;5.890;2022-11-22T23:21:12;9.90;99.90
41557;DHT22;27720;51.992;5.890;2022-11-22T23:23:38;9.90;99.90
41557;DHT22;27720;51.992;5.890;2022-11-22T23:26:07;9.90;99.90
41557;DHT22;27720;51.992;5.890;2022-11-22T23:28:42;10.00;99.90
41557;DHT22;27720;51.992;5.890;2022-11-22T23:31:11;9.90;99.90
41557;DHT22;27720;51.992;5.890;2022-11-22T23:33:38;9.90;99.90
41557;DHT22;27720;51.992;5.890;2022-11-22T23:36:16;10.00;99.90
41557;DHT22;27720;51.992;5.890;2022-11-22T23:38:42;10.00;99.90
41557;DHT22;27720;51.992;5.890;2022-11-22T23:41:16;10.00;99.90
41557;DHT22;27720;51.992;5.890;2022-11-22T23:43:42;10.00;99.90
41557;DHT22;27720;51.992;5.890;2022-11-22T23:46:09;10.00;99.90
41557;DHT22;27720;51.992;5.890;2022-11-22T23:48:54;10.00;99.90
41557;DHT22;27720;51.992;5.890;2022-11-22T23:51:21;10.00;99.90
41557;DHT22;27720;51.992;5.890;2022-11-22T23:53:47;9.90;99.90
41557;DHT22;27720;51.992;5.890;2022-11-22T23:56:16;10.00;99.90
41557;DHT22;27720;51.992;5.890;2022-11-22T23:58:44;9.90;99.90
